Time;durP1;ratioP1;P1;durP2;ratioP2;P2;SDS_P1;SDS_P2;PMS_P1;PMS_P2;Temp;Humidity;BMP_temperature;BMP_pressure;BME280_temperature;BME280_humidity;BME280_pressure;Samples;Min_cycle;Max_cycle;Signal;HPM_P1;HPM_P2
2022/09/13 00:02:57;;;;;;;;;;;;;;;22.03;53.19;100590.95;2240063;78;50700;-75
2022/09/13 00:06:01;;;;;;;;;;;;;;;22.04;53.13;100593.95;2243081;79;50400;-76
2022/09/13 00:09:03;;;;;;;;;;;;;;;22.03;53.15;100578.83;2220119;79;52575;-75
2022/09/13 00:12:04;;;;;;;;;;;;;;;22.03;53.20;100578.30;2243268;79;51437;-74
2022/09/13 00:15:06;;;;;;;;;;;;;;;22.04;53.22;100581.82;2244090;78;50720;-74
2022/09/13 00:18:08;;;;;;;;;;;;;;;22.04;53.17;100576.44;2248905;79;50437;-73
2022/09/13 00:21:11;;;;;;;;;;;;;;;22.04;53.24;100573.73;2248865;79;50377;-74
2022/09/13 00:24:12;;;;;;;;;;;;;;;22.03;53.27;100563.48;2223447;78;50678;-74
2022/09/13 00:27:14;;;;;;;;;;;;;;;22.03;53.29;100555.92;2249058;79;51520;-75
2022/09/13 00:30:15;;;;;;;;;;;;;;;22.03;53.27;100559.45;2223675;79;52164;-73
2022/09/13 00:33:17;;;;;;;;;;;;;;;22.04;53.27;100557.57;2237636;78;51556;-73
2022/09/13 00:36:18;;;;;;;;;;;;;;;22.03;53.28;100553.23;2251285;78;51469;-74
2022/09/13 00:39:20;;;;;;;;;;;;;;;22.03;53.30;100539.76;2260045;78;50304;-74
2022/09/13 00:42:25;;;;;;;;;;;;;;;22.03;53.30;100537.06;2251229;78;51480;-74
2022/09/13 00:45:27;;;;;;;;;;;;;;;22.01;53.32;100521.09;2228357;78;51876;-75
2022/09/13 00:48:29;;;;;;;;;;;;;;;22.02;53.36;100512.52;2251593;78;52432;-73
2022/09/13 00:51:30;;;;;;;;;;;;;;;22.02;53.36;100509.83;2259997;77;51484;-73
2022/09/13 00:54:33;;;;;;;;;;;;;;;22.02;53.38;100504.44;2259866;77;50324;-73
2022/09/13 00:57:35;;;;;;;;;;;;;;;22.02;53.35;100501.74;2228255;78;49619;-74
2022/09/13 01:00:38;;;;;;;;;;;;;;;22.01;53.77;100498.72;2258442;78;50374;-75
2022/09/13 01:03:39;;;;;;;;;;;;;;;22.00;53.47;100489.81;2276693;77;51551;-74
2022/09/13 01:06:41;;;;;;;;;;;;;;;22.01;53.63;100487.94;2294923;76;51458;-75
2022/09/13 01:09:43;;;;;;;;;;;;;;;22.00;53.50;100488.99;2270723;77;51048;-74
2022/09/13 01:12:56;;;;;;;;;;;;;;;22.00;53.50;100487.13;2294735;77;50773;-74
2022/09/13 01:15:58;;;;;;;;;;;;;;;22.00;53.48;100484.42;2294484;76;50271;-75
2022/09/13 01:18:59;;;;;;;;;;;;;;;22.01;53.49;100485.25;2269674;77;51538;-75
2022/09/13 01:22:05;;;;;;;;;;;;;;;21.99;53.52;100485.48;2271124;77;50906;-75
2022/09/13 01:25:09;;;;;;;;;;;;;;;22.01;53.53;100471.78;2299873;76;50448;-74
2022/09/13 01:28:24;;;;;;;;;;;;;;;21.99;53.57;100469.31;2301520;77;50477;-75
2022/09/13 01:31:39;;;;;;;;;;;;;;;21.99;53.54;100468.45;2291985;77;50553;-75
2022/09/13 01:34:43;;;;;;;;;;;;;;;22.00;53.51;100473.65;2206932;78;51448;-74
2022/09/13 01:38:01;;;;;;;;;;;;;;;22.00;53.53;100485.77;2210573;79;50238;-74
2022/09/13 01:41:08;;;;;;;;;;;;;;;22.00;53.53;100484.95;2210046;80;50349;-75
2022/09/13 01:44:29;;;;;;;;;;;;;;;21.99;53.53;100477.39;2210358;79;51819;-74
2022/09/13 01:47:33;;;;;;;;;;;;;;;21.98;53.57;100460.08;2186116;80;49335;-75
2022/09/13 01:50:51;;;;;;;;;;;;;;;21.98;53.57;100470.33;2210681;80;50696;-75
2022/09/13 01:53:54;;;;;;;;;;;;;;;21.99;53.55;100463.07;2210381;78;50788;-74
2022/09/13 01:57:14;;;;;;;;;;;;;;;21.96;53.57;100455.74;2208860;79;50968;-75
2022/09/13 02:00:16;;;;;;;;;;;;;;;21.98;53.56;100450.65;2187465;79;51121;-75
2022/09/13 02:03:18;;;;;;;;;;;;;;;21.98;53.56;100448.78;2240393;78;51625;-77
2022/09/13 02:06:21;;;;;;;;;;;;;;;21.96;53.63;100450.84;2283897;76;50412;-74
2022/09/13 02:09:23;;;;;;;;;;;;;;;21.95;53.62;100444.64;2283863;78;51543;-74
2022/09/13 02:12:25;;;;;;;;;;;;;;;21.95;53.67;100437.91;2260187;77;49580;-74
2022/09/13 02:15:28;;;;;;;;;;;;;;;21.96;53.65;100422.06;2283705;76;51509;-75
2022/09/13 02:18:32;;;;;;;;;;;;;;;21.96;53.66;100432.84;2283568;77;51511;-75
2022/09/13 02:21:37;;;;;;;;;;;;;;;21.96;53.64;100431.50;2283843;78;50133;-76
2022/09/13 02:24:39;;;;;;;;;;;;;;;21.96;53.65;100416.68;2283798;76;22802;-75
2022/09/13 02:27:40;;;;;;;;;;;;;;;21.95;53.74;100423.61;2283905;78;50303;-76
2022/09/13 02:30:43;;;;;;;;;;;;;;;21.97;53.67;100420.20;2277401;77;51642;-75
2022/09/13 02:33:46;;;;;;;;;;;;;;;21.96;53.70;100420.72;2245583;76;51593;-75
2022/09/13 02:36:48;;;;;;;;;;;;;;;21.94;53.68;100409.32;2260934;77;50131;-74
2022/09/13 02:39:52;;;;;;;;;;;;;;;21.95;53.65;100404.75;2283889;78;51486;-75
2022/09/13 02:42:58;;;;;;;;;;;;;;;21.96;53.67;100398.31;2283827;78;51493;-76
2022/09/13 02:46:17;;;;;;;;;;;;;;;21.95;53.70;100388.59;2282414;76;51547;-77
2022/09/13 02:49:23;;;;;;;;;;;;;;;21.96;53.66;100380.80;2283763;78;50658;-75
2022/09/13 02:52:32;;;;;;;;;;;;;;;21.95;53.68;100383.20;2284075;78;22414;-76
2022/09/13 02:55:35;;;;;;;;;;;;;;;21.94;53.68;100383.73;2283733;76;52297;-76
2022/09/13 02:58:46;;;;;;;;;;;;;;;21.95;53.74;100381.86;2283762;78;51607;-76
2022/09/13 03:02:05;;;;;;;;;;;;;;;21.94;53.71;100385.08;2240143;78;51371;-74
2022/09/13 03:05:06;;;;;;;;;;;;;;;21.95;53.67;100384.55;2247617;78;50688;-76
2022/09/13 03:08:09;;;;;;;;;;;;;;;21.93;53.73;100369.94;2222397;79;50465;-75
2022/09/13 03:11:29;;;;;;;;;;;;;;;21.94;53.71;100361.36;2248116;79;50656;-75
2022/09/13 03:14:32;;;;;;;;;;;;;;;21.94;53.73;100359.48;2223057;78;49627;-77
2022/09/13 03:17:38;;;;;;;;;;;;;;;21.93;53.75;100353.77;2247984;79;50365;-75
2022/09/13 03:20:41;;;;;;;;;;;;;;;21.94;53.78;100335.23;2247590;79;50220;-74
2022/09/13 03:23:44;;;;;;;;;;;;;;;21.93;53.75;100333.56;2221433;78;50378;-74
2022/09/13 03:27:03;;;;;;;;;;;;;;;21.93;53.75;100328.18;2223404;79;50158;-75
2022/09/13 03:30:13;;;;;;;;;;;;;;;21.93;53.75;100330.05;2248185;79;50427;-74
2022/09/13 03:33:19;;;;;;;;;;;;;;;21.91;53.83;100317.31;2224316;78;50441;-75
2022/09/13 03:36:21;;;;;;;;;;;;;;;21.92;53.82;100322.50;2262375;77;51611;-76
2022/09/13 03:39:28;;;;;;;;;;;;;;;21.92;53.80;100323.02;2255711;77;51060;-76
2022/09/13 03:42:37;;;;;;;;;;;;;;;21.91;53.81;100323.55;2283044;77;50799;-75
2022/09/13 03:45:49;;;;;;;;;;;;;;;21.91;53.80;100332.98;2301791;76;52568;-75
2022/09/13 03:48:51;;;;;;;;;;;;;;;21.91;53.81;100326.24;2302101;77;51592;-75
2022/09/13 03:51:52;;;;;;;;;;;;;;;21.91;53.83;100332.98;2267253;77;50123;-74
2022/09/13 03:54:54;;;;;;;;;;;;;;;21.91;53.83;100334.82;2302108;76;51533;-75
2022/09/13 03:57:55;;;;;;;;;;;;;;;21.91;53.82;100331.63;2302439;77;50263;-74
2022/09/13 04:00:57;;;;;;;;;;;;;;;21.91;53.84;100326.73;2251948;77;50356;-75
2022/09/13 04:03:59;;;;;;;;;;;;;;;21.90;53.83;100319.70;2254886;76;49283;-75
2022/09/13 04:07:02;;;;;;;;;;;;;;;21.91;53.80;100308.73;2294791;77;50304;-74
2022/09/13 04:10:04;;;;;;;;;;;;;;;21.89;53.86;100300.03;2270000;77;50684;-75
2022/09/13 04:13:06;;;;;;;;;;;;;;;21.90;53.88;100300.85;2269564;77;51518;-75
2022/09/13 04:16:08;;;;;;;;;;;;;;;21.90;53.88;100298.98;2244536;77;51922;-76
2022/09/13 04:19:09;;;;;;;;;;;;;;;21.90;53.83;100290.90;2269656;77;50329;-75
2022/09/13 04:22:11;;;;;;;;;;;;;;;21.89;53.85;100286.56;2294123;77;50504;-74
2022/09/13 04:25:12;;;;;;;;;;;;;;;21.90;53.88;100294.94;2294549;76;50745;-77
2022/09/13 04:28:14;;;;;;;;;;;;;;;21.91;53.90;100289.88;2245019;77;50929;-75
2022/09/13 04:31:16;;;;;;;;;;;;;;;21.87;54.41;100288.64;2277568;77;51616;-75
2022/09/13 04:34:17;;;;;;;;;;;;;;;21.86;54.16;100287.00;2256913;76;50711;-75
2022/09/13 04:37:19;;;;;;;;;;;;;;;21.86;54.38;100276.23;2294486;77;52566;-74
2022/09/13 04:40:22;;;;;;;;;;;;;;;21.85;54.39;100273.73;2244798;77;49580;-75
2022/09/13 04:43:24;;;;;;;;;;;;;;;21.83;54.73;100263.16;2269459;77;51619;-75
2022/09/13 04:46:26;;;;;;;;;;;;;;;21.84;54.37;100272.91;2294112;76;52528;-75
2022/09/13 04:49:27;;;;;;;;;;;;;;;21.82;54.61;100269.59;2269414;77;50298;-75
2022/09/13 04:52:29;;;;;;;;;;;;;;;21.83;54.61;100264.50;2271098;77;50058;-75
2022/09/13 04:55:30;;;;;;;;;;;;;;;21.84;54.59;100261.31;2269420;77;51533;-76
2022/09/13 04:58:32;;;;;;;;;;;;;;;21.83;54.54;100256.42;2267890;77;51545;-76
2022/09/13 05:01:34;;;;;;;;;;;;;;;21.80;54.75;100243.39;2248512;77;50747;-75
2022/09/13 05:04:35;;;;;;;;;;;;;;;21.85;54.32;100254.34;2227639;77;51166;-76
2022/09/13 05:07:37;;;;;;;;;;;;;;;21.86;54.26;100248.44;2251482;78;51545;-75
2022/09/13 05:10:38;;;;;;;;;;;;;;;21.87;54.21;100237.98;2251415;78;51492;-76
2022/09/13 05:13:40;;;;;;;;;;;;;;;21.84;54.54;100239.24;2204029;78;52657;-76
2022/09/13 05:16:42;;;;;;;;;;;;;;;21.85;54.53;100236.02;2228042;78;51027;-76
2022/09/13 05:19:43;;;;;;;;;;;;;;;21.85;54.45;100236.02;2259950;78;51499;-76
2022/09/13 05:22:45;;;;;;;;;;;;;;;21.85;54.86;100239.54;2251236;78;50376;-76
2022/09/13 05:25:48;;;;;;;;;;;;;;;21.87;54.97;100233.95;2249138;78;51515;-76
2022/09/13 05:28:50;;;;;;;;;;;;;;;21.90;54.13;100227.59;2223187;77;51495;-76
2022/09/13 05:31:52;;;;;;;;;;;;;;;21.91;54.76;100230.62;2248323;78;51646;-76
2022/09/13 05:34:53;;;;;;;;;;;;;;;21.92;55.25;100216.09;2236210;78;51420;-76
2022/09/13 05:37:55;;;;;;;;;;;;;;;21.90;55.28;100222.73;2249320;78;51589;-76
2022/09/13 05:40:57;;;;;;;;;;;;;;;21.92;55.66;100229.56;2279810;77;50288;-75
2022/09/13 05:43:59;;;;;;;;;;;;;;;21.88;56.14;100224.81;2242749;76;50293;-76
2022/09/13 05:47:01;;;;;;;;;;;;;;;21.90;55.58;100221.39;2302180;77;50290;-76
2022/09/13 05:50:02;;;;;;;;;;;;;;;21.87;55.84;100226.69;2265640;77;50466;-76
2022/09/13 05:53:04;;;;;;;;;;;;;;;21.90;55.63;100223.55;2266666;77;49590;-77
2022/09/13 05:56:07;;;;;;;;;;;;;;;21.88;55.90;100224.28;2277039;76;51527;-77
2022/09/13 05:59:10;;;;;;;;;;;;;;;21.87;55.77;100229.38;2249861;78;50773;-77
2022/09/13 06:02:12;;;;;;;;;;;;;;;21.87;55.89;100230.73;2249718;79;50689;-78
2022/09/13 06:05:13;;;;;;;;;;;;;;;21.87;55.61;100237.46;2224380;79;50893;-77
2022/09/13 06:08:15;;;;;;;;;;;;;;;21.89;55.45;100242.12;2248223;77;51560;-78
2022/09/13 06:11:16;;;;;;;;;;;;;;;21.90;55.21;100246.45;2246795;78;50357;-78
2022/09/13 06:14:18;;;;;;;;;;;;;;;21.90;55.15;100238.38;2238780;79;50217;-78
2022/09/13 06:17:20;;;;;;;;;;;;;;;21.91;55.28;100249.97;2223656;79;51817;-78
2022/09/13 06:20:21;;;;;;;;;;;;;;;21.89;55.41;100251.55;2248273;79;51433;-78
2022/09/13 06:23:23;;;;;;;;;;;;;;;21.87;55.32;100249.58;2247920;79;50645;-78
2022/09/13 06:26:25;;;;;;;;;;;;;;;21.86;55.51;100253.33;2223688;79;52582;-78
2022/09/13 06:29:27;;;;;;;;;;;;;;;21.84;55.49;100256.75;2223819;79;49602;-77
2022/09/13 06:32:28;;;;;;;;;;;;;;;21.85;55.66;100263.78;2248602;79;50321;-77
2022/09/13 06:35:30;;;;;;;;;;;;;;;21.85;55.52;100261.08;2248406;79;50718;-78
2022/09/13 06:38:31;;;;;;;;;;;;;;;21.84;55.50;100270.74;2248055;79;51537;-77
2022/09/13 06:41:33;;;;;;;;;;;;;;;21.87;55.12;100258.19;2216223;79;50111;-78
2022/09/13 06:44:35;;;;;;;;;;;;;;;21.86;55.27;100263.25;2242371;79;50635;-78
2022/09/13 06:47:36;;;;;;;;;;;;;;;21.87;55.08;100272.48;2248663;79;51534;-77
2022/09/13 06:50:38;;;;;;;;;;;;;;;21.83;55.29;100264.50;2248151;79;53889;-77
2022/09/13 06:53:40;;;;;;;;;;;;;;;21.85;55.15;100251.66;2223509;79;52012;-77
2022/09/13 06:56:41;;;;;;;;;;;;;;;21.88;54.97;100249.88;2248397;78;51586;-77
2022/09/13 06:59:43;;;;;;;;;;;;;;;21.83;55.34;100247.00;2248979;79;51594;-77
2022/09/13 07:02:44;;;;;;;;;;;;;;;21.85;55.16;100243.58;2248649;79;51566;-77
2022/09/13 07:05:46;;;;;;;;;;;;;;;21.85;55.05;100238.19;2247986;77;51549;-77
2022/09/13 07:08:48;;;;;;;;;;;;;;;21.86;54.96;100221.50;2248750;79;52367;-77
2022/09/13 07:11:50;;;;;;;;;;;;;;;21.87;54.92;100213.22;2264793;78;51466;-77
2022/09/13 07:14:52;;;;;;;;;;;;;;;21.89;54.85;100219.22;2293760;76;50297;-77
2022/09/13 07:17:54;;;;;;;;;;;;;;;21.89;54.83;100220.57;2295091;77;50323;-78
2022/09/13 07:21:02;;;;;;;;;;;;;;;21.89;54.76;100223.27;2269966;77;50375;-77
2022/09/13 07:24:04;;;;;;;;;;;;;;;21.88;54.76;100216.20;2294790;76;50783;-77
2022/09/13 07:27:05;;;;;;;;;;;;;;;21.89;54.78;100217.06;2295225;77;50390;-78
2022/09/13 07:30:07;;;;;;;;;;;;;;;21.86;54.78;100207.54;2271710;77;50080;-77
2022/09/13 07:33:09;;;;;;;;;;;;;;;21.87;54.72;100207.02;2270108;77;50107;-77
2022/09/13 07:36:11;;;;;;;;;;;;;;;21.86;54.71;100210.23;2271088;77;49666;-77
2022/09/13 07:39:16;;;;;;;;;;;;;;;21.85;54.68;100212.60;2294034;77;49890;-77
2022/09/13 07:42:17;;;;;;;;;;;;;;;21.86;54.67;100208.89;2256515;77;51015;-75
2022/09/13 07:45:20;;;;;;;;;;;;;;;21.87;54.63;100209.70;2259939;78;51497;-77
2022/09/13 07:48:22;;;;;;;;;;;;;;;21.86;54.62;100206.69;2261505;78;50297;-76
2022/09/13 07:51:24;;;;;;;;;;;;;;;21.84;54.63;100212.31;2291716;77;50691;-76
2022/09/13 07:54:26;;;;;;;;;;;;;;;21.86;54.59;100206.19;2259424;76;52575;-76
2022/09/13 07:57:28;;;;;;;;;;;;;;;21.85;54.60;100195.63;2276903;78;50755;-76
2022/09/13 08:00:29;;;;;;;;;;;;;;;21.86;54.57;100196.77;2260171;78;51879;-76
2022/09/13 08:03:32;;;;;;;;;;;;;;;21.86;54.55;100190.53;2287627;78;51502;-76
2022/09/13 08:06:34;;;;;;;;;;;;;;;21.87;54.53;100203.80;2265570;77;49675;-78
2022/09/13 08:09:35;;;;;;;;;;;;;;;21.87;54.48;100202.45;2261313;78;50794;-76
2022/09/13 08:12:37;;;;;;;;;;;;;;;21.86;54.50;100200.80;2227189;79;50481;-76
2022/09/13 08:15:39;;;;;;;;;;;;;;;21.87;54.47;100198.94;2223847;79;49706;-77
2022/09/13 08:18:44;;;;;;;;;;;;;;;21.87;54.45;100193.55;2224263;79;51471;-76
2022/09/13 08:21:46;;;;;;;;;;;;;;;21.87;54.42;100191.67;2276399;78;50421;-77
2022/09/13 08:24:47;;;;;;;;;;;;;;;21.88;54.40;100197.88;2251791;78;50180;-77
2022/09/13 08:27:49;;;;;;;;;;;;;;;21.87;54.38;100197.06;2249105;79;50349;-77
2022/09/13 08:30:50;;;;;;;;;;;;;;;21.88;54.36;100199.23;2217904;79;51293;-77
2022/09/13 08:33:52;;;;;;;;;;;;;;;21.88;54.36;100198.70;2249734;76;51501;-77
2022/09/13 08:36:54;;;;;;;;;;;;;;;21.87;54.34;100208.36;2295224;77;51587;-77
2022/09/13 08:39:55;;;;;;;;;;;;;;;21.86;54.36;100219.66;2295001;77;51458;-78
2022/09/13 08:43:05;;;;;;;;;;;;;;;21.87;54.34;100207.83;2245425;77;51094;-77
2022/09/13 08:46:08;;;;;;;;;;;;;;;21.87;54.32;100213.22;2295102;76;50848;-77
2022/09/13 08:49:11;;;;;;;;;;;;;;;21.86;54.29;100207.54;2295008;77;50782;-77
2022/09/13 08:52:14;;;;;;;;;;;;;;;21.88;54.25;100211.34;2294369;76;50773;-78
2022/09/13 08:55:21;;;;;;;;;;;;;;;21.87;54.30;100224.52;2292441;76;50836;-78
2022/09/13 08:58:43;;;;;;;;;;;;;;;21.88;54.25;100207.30;2295179;77;50757;-78
2022/09/13 09:01:55;;;;;;;;;;;;;;;21.87;54.24;100205.14;2284035;77;50716;-78
2022/09/13 09:05:14;;;;;;;;;;;;;;;21.89;54.21;100205.76;2273896;76;50851;-77
2022/09/13 09:08:34;;;;;;;;;;;;;;;21.88;54.23;100200.05;2261117;78;52602;-78
2022/09/13 09:11:37;;;;;;;;;;;;;;;21.88;54.22;100186.58;2209585;80;50407;-78
2022/09/13 09:14:41;;;;;;;;;;;;;;;21.87;54.21;100182.25;2209401;80;50298;-78
2022/09/13 09:17:44;;;;;;;;;;;;;;;21.86;54.24;100183.30;2209577;80;51626;-78
2022/09/13 09:20:47;;;;;;;;;;;;;;;21.87;54.19;100174.69;2185240;80;52522;-81
2022/09/13 09:23:52;;;;;;;;;;;;;;;21.87;54.19;100171.47;2209393;80;50464;-77
2022/09/13 09:26:53;;;;;;;;;;;;;;;21.87;54.20;100178.20;2209649;80;51598;-77
2022/09/13 09:29:57;;;;;;;;;;;;;;;21.86;54.19;100183.30;2185968;80;50597;-78
2022/09/13 09:33:12;;;;;;;;;;;;;;;21.87;54.17;100190.33;2206555;79;50866;-78
2022/09/13 09:36:15;;;;;;;;;;;;;;;21.87;54.19;100194.36;2209145;80;50597;-78
2022/09/13 09:39:16;;;;;;;;;;;;;;;21.87;54.16;100187.63;2209451;80;50499;-78
2022/09/13 09:42:20;;;;;;;;;;;;;;;21.88;54.15;100183.06;2209715;80;50150;-78
2022/09/13 09:45:23;;;;;;;;;;;;;;;21.88;54.14;100186.58;2199982;79;50114;-78
2022/09/13 09:48:27;;;;;;;;;;;;;;;21.88;54.11;100182.53;2248674;79;50684;-78
2022/09/13 09:51:29;;;;;;;;;;;;;;;21.88;54.15;100182.53;2248695;79;50217;-77
2022/09/13 09:54:31;;;;;;;;;;;;;;;21.88;54.13;100178.50;2247592;78;50782;-78
2022/09/13 09:57:51;;;;;;;;;;;;;;;21.89;54.10;100178.82;2222169;79;49662;-78
2022/09/13 10:00:56;;;;;;;;;;;;;;;21.86;54.19;100184.64;2241215;79;50400;-78
2022/09/13 10:04:00;;;;;;;;;;;;;;;21.90;54.12;100182.34;2273947;77;50432;-75
2022/09/13 10:07:08;;;;;;;;;;;;;;;21.93;53.99;100178.67;2261210;78;51475;-76
2022/09/13 10:10:27;;;;;;;;;;;;;;;21.93;54.13;100177.33;2227493;78;51836;-76
2022/09/13 10:13:29;;;;;;;;;;;;;;;21.93;54.23;100163.86;2256591;78;50932;-78
2022/09/13 10:16:30;;;;;;;;;;;;;;;21.93;54.32;100165.20;2249701;78;50422;-76
2022/09/13 10:19:32;;;;;;;;;;;;;;;21.96;54.32;100161.25;2249817;79;50349;-77
2022/09/13 10:22:34;;;;;;;;;;;;;;;21.94;54.38;100160.14;2224129;79;50094;-78
2022/09/13 10:25:36;;;;;;;;;;;;;;;21.95;54.37;100157.73;2222346;79;51891;-76
2022/09/13 10:28:48;;;;;;;;;;;;;;;21.96;54.36;100167.48;2250905;78;51583;-76
2022/09/13 10:31:52;;;;;;;;;;;;;;;21.95;54.38;100169.86;2260064;77;51679;-76
2022/09/13 10:34:53;;;;;;;;;;;;;;;21.96;54.32;100158.55;2266019;76;23196;-76
2022/09/13 10:37:54;;;;;;;;;;;;;;;21.98;54.33;100150.27;2286727;77;50321;-76
2022/09/13 10:40:56;;;;;;;;;;;;;;;21.97;54.34;100145.41;2251677;77;50743;-77
2022/09/13 10:43:58;;;;;;;;;;;;;;;21.97;54.37;100148.11;2294740;76;51550;-75
2022/09/13 10:47:01;;;;;;;;;;;;;;;21.99;54.33;100151.41;2270994;77;51391;-75
2022/09/13 10:50:19;;;;;;;;;;;;;;;21.99;54.38;100141.98;2294532;77;51525;-75
2022/09/13 10:53:39;;;;;;;;;;;;;;;21.98;54.45;100138.97;2294150;77;51374;-75
2022/09/13 10:56:42;;;;;;;;;;;;;;;21.99;54.41;100134.40;2239637;77;49667;-75
2022/09/13 10:59:44;;;;;;;;;;;;;;;22.01;54.43;100133.14;2264757;77;51013;-75
2022/09/13 11:02:50;;;;;;;;;;;;;;;22.00;54.52;100134.72;2252064;77;50696;-75
2022/09/13 11:06:10;;;;;;;;;;;;;;;21.99;54.54;100146.52;2230370;79;50665;-76
2022/09/13 11:09:16;;;;;;;;;;;;;;;22.00;54.54;100144.16;2249162;79;50282;-75
2022/09/13 11:12:22;;;;;;;;;;;;;;;21.96;54.61;100142.39;2222045;79;52774;-75
2022/09/13 11:15:25;;;;;;;;;;;;;;;21.96;54.53;100147.29;2227711;77;51588;-75
2022/09/13 11:18:29;;;;;;;;;;;;;;;21.98;54.57;100135.45;2279217;77;50784;-75
2022/09/13 11:21:32;;;;;;;;;;;;;;;21.96;54.57;100148.63;2294590;77;51435;-75
2022/09/13 11:24:41;;;;;;;;;;;;;;;21.98;54.57;100144.36;2270673;76;50965;-75
2022/09/13 11:27:47;;;;;;;;;;;;;;;21.95;54.49;100142.10;2294608;77;50784;-75
2022/09/13 11:31:00;;;;;;;;;;;;;;;21.94;54.47;100138.59;2287783;77;50306;-76
2022/09/13 11:34:18;;;;;;;;;;;;;;;21.95;54.45;100143.45;2248691;78;50783;-75
2022/09/13 11:37:27;;;;;;;;;;;;;;;21.95;54.50;100149.66;2222857;79;51416;-77
2022/09/13 11:40:33;;;;;;;;;;;;;;;21.90;54.75;100145.44;2248137;79;50708;-77
2022/09/13 11:43:46;;;;;;;;;;;;;;;21.93;54.64;100138.27;2246729;78;51614;-77
2022/09/13 11:46:54;;;;;;;;;;;;;;;21.95;54.60;100142.92;2248087;79;51643;-77
2022/09/13 11:50:14;;;;;;;;;;;;;;;21.96;54.57;100134.31;2223445;79;52528;-77
2022/09/13 11:53:18;;;;;;;;;;;;;;;21.95;54.69;100139.41;2248014;79;50679;-78
2022/09/13 11:56:21;;;;;;;;;;;;;;;21.95;54.74;100133.50;2246985;78;50820;-77
2022/09/13 11:59:30;;;;;;;;;;;;;;;21.95;54.74;100133.50;2247126;79;50418;-77
2022/09/13 12:02:50;;;;;;;;;;;;;;;21.96;54.68;100136.52;2215196;79;51853;-77
2022/09/13 12:05:52;;;;;;;;;;;;;;;21.96;54.59;100130.27;2255251;77;50684;-77
2022/09/13 12:09:01;;;;;;;;;;;;;;;21.95;54.55;100130.80;2258600;78;51459;-76
2022/09/13 12:12:04;;;;;;;;;;;;;;;21.95;54.52;100134.84;2289652;77;51649;-77
2022/09/13 12:15:07;;;;;;;;;;;;;;;21.95;54.52;100133.50;2266588;77;51175;-77
2022/09/13 12:18:10;;;;;;;;;;;;;;;21.96;54.59;100132.47;2300077;77;51587;-77
2022/09/13 12:21:13;;;;;;;;;;;;;;;21.95;54.49;100130.80;2300943;77;50927;-76
2022/09/13 12:24:16;;;;;;;;;;;;;;;21.95;54.51;100128.63;2265932;76;51572;-77
2022/09/13 12:27:25;;;;;;;;;;;;;;;21.95;54.52;100121.38;2264520;77;50927;-77
2022/09/13 12:30:28;;;;;;;;;;;;;;;21.95;54.50;100122.72;2302352;77;50271;-76
2022/09/13 12:33:30;;;;;;;;;;;;;;;21.93;54.65;100130.19;2282190;77;51436;-76
2022/09/13 12:36:35;;;;;;;;;;;;;;;21.94;54.63;100131.03;2295031;76;51440;-77
2022/09/13 12:39:52;;;;;;;;;;;;;;;21.92;54.64;100131.24;2294429;77;51644;-76
2022/09/13 12:42:55;;;;;;;;;;;;;;;21.92;54.63;100128.55;2270723;77;51160;-76
2022/09/13 12:46:11;;;;;;;;;;;;;;;21.92;54.62;100127.20;2294247;76;50781;-77
2022/09/13 12:49:15;;;;;;;;;;;;;;;21.92;54.58;100126.38;2294398;77;50482;-76
2022/09/13 12:52:30;;;;;;;;;;;;;;;21.92;54.58;100127.20;2294456;77;50330;-77
2022/09/13 12:55:34;;;;;;;;;;;;;;;21.91;54.54;100122.87;2270535;77;49673;-77
2022/09/13 12:58:56;;;;;;;;;;;;;;;21.90;54.59;100117.69;2294678;77;51533;-77
2022/09/13 13:01:59;;;;;;;;;;;;;;;21.89;54.59;100120.09;2282939;77;50939;-77
2022/09/13 13:05:02;;;;;;;;;;;;;;;21.89;54.61;100122.26;2264793;76;51529;-77
2022/09/13 13:08:04;;;;;;;;;;;;;;;21.90;54.59;100127.11;2271255;77;50121;-78
2022/09/13 13:11:12;;;;;;;;;;;;;;;21.88;54.63;100121.94;2294881;77;50456;-77
2022/09/13 13:14:30;;;;;;;;;;;;;;;21.87;54.62;100112.22;2294769;76;50443;-77
2022/09/13 13:17:36;;;;;;;;;;;;;;;21.88;54.61;100103.08;2295202;77;50299;-78
2022/09/13 13:20:41;;;;;;;;;;;;;;;21.88;54.63;100103.61;2271449;77;50183;-77
2022/09/13 13:23:46;;;;;;;;;;;;;;;21.87;54.60;100100.63;2294612;77;50779;-78
2022/09/13 13:26:49;;;;;;;;;;;;;;;21.86;54.62;100102.50;2270011;77;52342;-77
2022/09/13 13:33:24;;;;;;;;;;;;;;;21.87;54.60;100101.97;2230826;79;22426;-76
2022/09/13 13:36:33;;;;;;;;;;;;;;;21.87;54.60;100096.05;2222055;79;51511;-76
2022/09/13 13:39:39;;;;;;;;;;;;;;;21.90;54.54;100098.83;2212162;80;51632;-78
2022/09/13 13:42:43;;;;;;;;;;;;;;;21.90;54.56;100094.80;2212313;80;51566;-78
2022/09/13 13:45:58;;;;;;;;;;;;;;;21.90;54.54;100088.88;2212209;80;23579;-78
2022/09/13 13:49:01;;;;;;;;;;;;;;;21.90;54.59;100088.06;2212214;78;50770;-75
2022/09/13 13:52:14;;;;;;;;;;;;;;;21.90;54.59;100093.45;2211679;80;51618;-76
2022/09/13 13:55:24;;;;;;;;;;;;;;;21.90;54.59;100086.72;2212196;80;51531;-76
2022/09/13 13:58:29;;;;;;;;;;;;;;;21.89;54.60;100084.55;2187957;80;49954;-76
2022/09/13 14:01:32;;;;;;;;;;;;;;;21.89;54.59;100077.81;2211771;79;51468;-78
2022/09/13 14:04:38;;;;;;;;;;;;;;;21.88;54.60;100080.19;2234466;78;50313;-77
2022/09/13 14:07:58;;;;;;;;;;;;;;;21.87;54.64;100078.55;2245033;79;50849;-77
2022/09/13 14:11:04;;;;;;;;;;;;;;;21.87;54.71;100073.16;2248730;79;50237;-77
2022/09/13 14:14:13;;;;;;;;;;;;;;;21.89;54.65;100077.81;2272549;77;50778;-76
2022/09/13 14:17:25;;;;;;;;;;;;;;;21.89;54.79;100077.81;2229503;78;50631;-75
2022/09/13 14:20:27;;;;;;;;;;;;;;;21.89;54.76;100085.89;2212207;80;51502;-76
2022/09/13 14:23:29;;;;;;;;;;;;;;;21.88;54.80;100076.14;2211670;80;51062;-76
2022/09/13 14:26:30;;;;;;;;;;;;;;;21.89;54.74;100080.50;2181777;79;51436;-76
2022/09/13 14:29:32;;;;;;;;;;;;;;;21.91;54.69;100076.23;2224573;77;50427;-77
2022/09/13 14:32:40;;;;;;;;;;;;;;;21.90;54.71;100078.10;2281394;77;50366;-76
2022/09/13 14:35:42;;;;;;;;;;;;;;;21.90;54.88;100075.94;2283271;77;51834;-76
2022/09/13 14:38:48;;;;;;;;;;;;;;;21.85;55.16;100069.86;2205460;79;50456;-77
2022/09/13 14:41:51;;;;;;;;;;;;;;;21.82;55.16;100078.38;2217049;78;51639;-76
2022/09/13 14:44:53;;;;;;;;;;;;;;;21.84;55.12;100070.09;2243875;78;50786;-77
2022/09/13 14:47:56;;;;;;;;;;;;;;;21.81;55.27;100075.89;2258449;78;50809;-78
2022/09/13 14:50:59;;;;;;;;;;;;;;;21.83;55.25;100084.58;2256785;79;51501;-77
2022/09/13 14:54:05;;;;;;;;;;;;;;;21.84;55.15;100074.95;2255638;79;51608;-77
2022/09/13 14:57:07;;;;;;;;;;;;;;;21.86;55.21;100060.75;2255713;78;50324;-77
2022/09/13 15:00:17;;;;;;;;;;;;;;;21.87;54.95;100058.34;2258588;78;52709;-78
2022/09/13 15:03:19;;;;;;;;;;;;;;;21.90;54.89;100061.13;2256402;79;50772;-76
2022/09/13 15:06:24;;;;;;;;;;;;;;;21.86;55.20;100053.17;2256513;79;50384;-76
2022/09/13 15:09:26;;;;;;;;;;;;;;;21.85;55.12;100053.70;2256659;79;50683;-77
2022/09/13 15:12:28;;;;;;;;;;;;;;;21.84;55.23;100048.02;2235712;78;49555;-77
2022/09/13 15:15:37;;;;;;;;;;;;;;;21.84;55.40;100052.06;2205850;80;51533;-77
2022/09/13 15:18:39;;;;;;;;;;;;;;;21.85;55.31;100053.70;2212590;80;51545;-76
2022/09/13 15:21:41;;;;;;;;;;;;;;;21.85;55.21;100047.49;2213997;80;50338;-77
2022/09/13 15:24:44;;;;;;;;;;;;;;;21.88;55.15;100049.21;2190083;80;49551;-76
2022/09/13 15:27:46;;;;;;;;;;;;;;;21.90;55.04;100036.88;2212767;80;50353;-76
2022/09/13 15:30:47;;;;;;;;;;;;;;;21.92;55.02;100036.97;2212693;80;50443;-76
2022/09/13 15:33:49;;;;;;;;;;;;;;;21.90;54.92;100045.78;2210945;80;50209;-77
2022/09/13 15:37:07;;;;;;;;;;;;;;;21.89;55.16;100038.76;2186304;80;50179;-77
2022/09/13 15:40:19;;;;;;;;;;;;;;;21.90;55.17;100039.58;2210400;80;50917;-77
2022/09/13 15:43:21;;;;;;;;;;;;;;;21.89;55.27;100040.11;2222392;79;50457;-77
2022/09/13 15:46:22;;;;;;;;;;;;;;;21.88;55.38;100039.78;2181767;80;50082;-77
2022/09/13 15:49:25;;;;;;;;;;;;;;;21.86;55.57;100037.86;2152155;81;51376;-76
2022/09/13 15:52:26;;;;;;;;;;;;;;;21.87;55.55;100038.67;2175662;82;50529;-77